createdAt,value
2023-05-19T00:00:34.692Z,74.3683
2023-05-19T00:01:35.777Z,73.6758
2023-05-19T00:02:37.289Z,73.8515
2023-05-19T00:03:38.728Z,73.7098
2023-05-19T00:04:40.141Z,73.8384
2023-05-19T00:05:41.514Z,73.9896
2023-05-19T00:06:42.959Z,72.1277
2023-05-19T00:07:44.355Z,71.4065
2023-05-19T00:08:45.886Z,73.2784
2023-05-19T00:09:47.269Z,74.1568
2023-05-19T00:10:48.643Z,73.6766
2023-05-19T00:11:50.032Z,73.5002
2023-05-19T00:12:53.725Z,73.5989
2023-05-19T00:13:52.906Z,73.4927
2023-05-19T00:14:54.417Z,73.0139
2023-05-19T00:15:55.773Z,73.3211
2023-05-19T00:16:57.286Z,71.3937
2023-05-19T00:17:58.724Z,73.5811
2023-05-19T00:19:00.164Z,73.9784
2023-05-19T00:20:01.416Z,73.3578
2023-05-19T00:21:02.890Z,73.7621
2023-05-19T00:22:04.281Z,73.6064
2023-05-19T00:23:05.738Z,73.9738
2023-05-19T00:24:07.219Z,73.8912
2023-05-19T00:25:08.644Z,72.4843
2023-05-19T00:26:09.984Z,72.5739
2023-05-19T00:27:11.396Z,74.1109
2023-05-19T00:28:12.741Z,73.3831
2023-05-19T00:29:14.307Z,73.9136
2023-05-19T00:30:15.680Z,73.6350
2023-05-19T00:31:17.215Z,74.3532
2023-05-19T00:32:18.650Z,74.1285
2023-05-19T00:33:19.961Z,73.9494
2023-05-19T00:34:21.426Z,71.8508
2023-05-19T00:35:22.856Z,72.9121
2023-05-19T00:36:24.146Z,74.2002
2023-05-19T00:37:25.673Z,73.7080
2023-05-19T00:38:27.170Z,73.9310
2023-05-19T00:39:28.512Z,73.9085
2023-05-19T00:40:30.106Z,73.5742
2023-05-19T00:41:31.420Z,73.6887
2023-05-19T00:42:32.792Z,73.4388
2023-05-19T00:43:34.270Z,73.5077
2023-05-19T00:44:35.604Z,74.1638
2023-05-19T00:45:37.151Z,73.4273
2023-05-19T00:46:38.574Z,73.0198
2023-05-19T00:47:39.968Z,73.4244
2023-05-19T00:48:41.342Z,74.1299
2023-05-19T00:49:42.796Z,74.2541
2023-05-19T00:50:44.220Z,73.2165
2023-05-19T00:51:45.586Z,72.7458
2023-05-19T00:52:46.988Z,74.3034
2023-05-19T00:53:48.587Z,73.7346
2023-05-19T00:54:49.886Z,73.7646
2023-05-19T00:55:51.389Z,73.3157
2023-05-19T00:56:52.796Z,73.6819
2023-05-19T00:57:54.201Z,73.5758
2023-05-19T00:58:55.654Z,73.5124
2023-05-19T00:59:57.064Z,73.6432
2023-05-19T01:00:58.601Z,72.2298
2023-05-19T01:01:59.924Z,74.2001
2023-05-19T01:03:01.371Z,74.0637
2023-05-19T01:04:02.868Z,73.5627
2023-05-19T01:05:04.174Z,74.0617
2023-05-19T01:06:05.542Z,73.9800
2023-05-19T01:07:07.013Z,73.9665
2023-05-19T01:08:08.468Z,73.8519
2023-05-19T01:09:09.847Z,73.1433
2023-05-19T01:10:11.250Z,72.8321
2023-05-19T01:11:12.723Z,72.8408
2023-05-19T01:12:14.122Z,74.2945
2023-05-19T01:13:15.621Z,73.2881
2023-05-19T01:14:16.880Z,73.3069
2023-05-19T01:15:18.419Z,73.5948
2023-05-19T01:16:19.888Z,73.8378
2023-05-19T01:17:21.250Z,74.0069
2023-05-19T01:18:22.643Z,74.1495
2023-05-19T01:19:24.137Z,73.9615
2023-05-19T01:20:25.485Z,73.4564
2023-05-19T01:21:27.028Z,74.0293
2023-05-19T01:22:28.357Z,73.1349
2023-05-19T01:23:29.793Z,72.9461
2023-05-19T01:24:31.195Z,73.6570
2023-05-19T01:25:32.656Z,73.9334
2023-05-19T01:26:34.059Z,74.4366
2023-05-19T01:27:50.302Z,74.0636
2023-05-19T01:28:36.895Z,74.0747
2023-05-19T01:29:38.291Z,73.8271
2023-05-19T01:30:39.810Z,73.6915
2023-05-19T01:31:41.310Z,73.7270
2023-05-19T01:32:42.651Z,73.6832
2023-05-19T01:33:44.020Z,73.6850
2023-05-19T01:34:45.480Z,74.0056
2023-05-19T01:35:46.814Z,73.9560
2023-05-19T01:36:48.298Z,74.0211
2023-05-19T01:37:49.690Z,74.0422
2023-05-19T01:38:51.195Z,73.7417
2023-05-19T01:39:52.605Z,73.4018
2023-05-19T01:40:54.043Z,74.3583
2023-05-19T01:41:55.514Z,73.8282
2023-05-19T01:42:57.866Z,74.0773
2023-05-19T01:43:58.268Z,74.0978
2023-05-19T01:44:59.643Z,73.7836
2023-05-19T01:46:01.149Z,74.2877
2023-05-19T01:47:02.593Z,74.2714
2023-05-19T01:48:04.007Z,73.9537
2023-05-19T01:49:05.439Z,74.0709
2023-05-19T01:50:06.809Z,73.6349
2023-05-19T01:51:08.288Z,73.9471
2023-05-19T01:52:09.733Z,73.9668
2023-05-19T01:53:11.150Z,74.0700
2023-05-19T01:54:12.559Z,74.2499
2023-05-19T01:55:14.061Z,74.3018
2023-05-19T01:56:15.378Z,73.8995
2023-05-19T01:57:16.849Z,73.7848
2023-05-19T01:58:18.203Z,73.7741
2023-05-19T01:59:19.643Z,73.8591
2023-05-19T02:00:21.406Z,73.6648
2023-05-19T02:01:22.470Z,74.0741
2023-05-19T02:02:24.014Z,73.8999
2023-05-19T02:03:25.397Z,74.4205
2023-05-19T02:04:26.917Z,75.0072
2023-05-19T02:05:28.209Z,74.8279
2023-05-19T02:06:29.623Z,74.1095
2023-05-19T02:07:30.983Z,74.0983
2023-05-19T02:08:32.474Z,74.3137
2023-05-19T02:09:33.918Z,73.8157
2023-05-19T02:10:35.338Z,74.1674
2023-05-19T02:11:36.721Z,74.1327
2023-05-19T02:12:38.266Z,74.1058
2023-05-19T02:13:39.564Z,74.3613
2023-05-19T02:14:41.045Z,74.3379
2023-05-19T02:15:42.539Z,73.7096
2023-05-19T02:16:43.821Z,73.6407
2023-05-19T02:17:45.366Z,74.1369
2023-05-19T02:18:46.714Z,73.4770
2023-05-19T02:19:48.171Z,73.4737
2023-05-19T02:20:49.548Z,73.8757
2023-05-19T02:21:50.990Z,73.6906
2023-05-19T02:22:52.375Z,74.1631
2023-05-19T02:23:53.869Z,74.2480
2023-05-19T02:24:55.288Z,74.1071
2023-05-19T02:25:56.800Z,73.8531
2023-05-19T02:26:58.083Z,73.7554
2023-05-19T02:27:59.679Z,73.3890
2023-05-19T02:29:01.097Z,73.5389
2023-05-19T02:30:02.530Z,73.6675
2023-05-19T02:31:03.921Z,74.2549
2023-05-19T02:32:05.494Z,74.6703
2023-05-19T02:33:06.856Z,74.2473
2023-05-19T02:34:08.207Z,73.4512
2023-05-19T02:35:09.649Z,73.7899
2023-05-19T02:36:11.009Z,73.7717
2023-05-19T02:37:12.456Z,73.6669
2023-05-19T02:38:13.911Z,74.3704
2023-05-19T02:39:15.260Z,73.8022
2023-05-19T02:40:16.640Z,73.9903
2023-05-19T02:41:18.107Z,74.0232
2023-05-19T02:42:19.486Z,74.4081
2023-05-19T02:43:21.033Z,74.5346
2023-05-19T02:44:22.468Z,73.9613
2023-05-19T02:45:23.805Z,74.4155
2023-05-19T02:46:25.309Z,74.2669
2023-05-19T02:47:26.712Z,74.1467
2023-05-19T02:48:28.281Z,74.2294
2023-05-19T02:49:29.559Z,74.5154
2023-05-19T02:50:31.215Z,74.2444
2023-05-19T02:51:32.456Z,74.1788
2023-05-19T02:52:33.910Z,73.6972
2023-05-19T02:53:35.286Z,73.9372
2023-05-19T02:54:36.685Z,74.5736
2023-05-19T02:55:38.112Z,73.7868
2023-05-19T02:56:39.578Z,73.7164
2023-05-19T02:57:41.017Z,73.6067
2023-05-19T02:58:42.480Z,73.8989
2023-05-19T02:59:43.868Z,73.9785
2023-05-19T03:00:45.313Z,74.2843
2023-05-19T03:01:46.722Z,73.7312
2023-05-19T03:02:48.216Z,73.9554
2023-05-19T03:03:49.676Z,74.2209
2023-05-19T03:04:51.010Z,74.0319
2023-05-19T03:05:52.471Z,74.0416
2023-05-19T03:06:53.826Z,74.2550
2023-05-19T03:07:55.322Z,74.1853
2023-05-19T03:08:57.266Z,74.2929
2023-05-19T03:09:58.141Z,74.3162
2023-05-19T03:10:59.553Z,74.2207
2023-05-19T03:12:00.993Z,74.1477
2023-05-19T03:13:02.404Z,73.9354
2023-05-19T03:14:03.874Z,73.6469
2023-05-19T03:15:05.252Z,73.7095
2023-05-19T03:16:06.782Z,73.5962
2023-05-19T03:17:08.328Z,73.8762
2023-05-19T03:18:09.629Z,73.8645
2023-05-19T03:19:11.023Z,74.4422
2023-05-19T03:20:12.534Z,74.0827
2023-05-19T03:21:13.792Z,73.9498
2023-05-19T03:22:15.236Z,73.7205
2023-05-19T03:23:16.629Z,73.9898
2023-05-19T03:24:18.250Z,73.6521
2023-05-19T03:25:19.443Z,74.3431
2023-05-19T03:26:20.953Z,73.9977
2023-05-19T03:27:22.379Z,74.3602
2023-05-19T03:28:23.794Z,74.4652
2023-05-19T03:29:25.262Z,74.0799
2023-05-19T03:30:26.695Z,73.7348
2023-05-19T03:31:28.066Z,73.9484
2023-05-19T03:32:29.590Z,73.3882
2023-05-19T03:33:31.084Z,73.8104
2023-05-19T03:34:32.377Z,73.9719
2023-05-19T03:35:33.764Z,74.2869
2023-05-19T03:36:35.192Z,74.0140
2023-05-19T03:37:36.612Z,74.0521
2023-05-19T03:38:37.969Z,73.9033
2023-05-19T03:39:40.385Z,74.5015
2023-05-19T03:40:40.951Z,74.4769
2023-05-19T03:41:42.268Z,73.4064
2023-05-19T03:42:43.751Z,74.2545
2023-05-19T03:43:45.140Z,73.6628
2023-05-19T03:44:46.610Z,73.9595
2023-05-19T03:45:48.053Z,74.1023
2023-05-19T03:46:49.488Z,73.8144
2023-05-19T03:47:50.902Z,74.1514
2023-05-19T03:48:52.381Z,74.4003
2023-05-19T03:49:53.736Z,73.6765
2023-05-19T03:50:55.270Z,73.5384
2023-05-19T03:51:56.537Z,73.8038
2023-05-19T03:52:58.100Z,73.8607
2023-05-19T03:53:59.403Z,73.4783
2023-05-19T03:55:00.901Z,73.0060
2023-05-19T03:56:02.283Z,73.9026
2023-05-19T03:57:03.722Z,72.8338
2023-05-19T03:58:05.037Z,73.2352
2023-05-19T03:59:06.542Z,74.2632
2023-05-19T04:00:08.007Z,74.1759
2023-05-19T04:01:09.433Z,74.0577
2023-05-19T04:02:10.929Z,74.4732
2023-05-19T04:03:12.270Z,73.6586
2023-05-19T04:04:13.726Z,74.2486
2023-05-19T04:05:15.141Z,74.1331
2023-05-19T04:06:16.404Z,74.0027
2023-05-19T04:07:17.930Z,74.4860
2023-05-19T04:08:19.334Z,74.2935
2023-05-19T04:09:20.718Z,74.4943
2023-05-19T04:10:22.305Z,74.2928
2023-05-19T04:11:23.572Z,74.0016
2023-05-19T04:12:25.079Z,74.2100
2023-05-19T04:13:26.395Z,74.2641
2023-05-19T04:14:27.896Z,73.9838
2023-05-19T04:15:29.366Z,74.1308
2023-05-19T04:16:30.929Z,74.3984
2023-05-19T04:17:32.223Z,74.2428
2023-05-19T04:18:33.593Z,74.3308
2023-05-19T04:19:34.981Z,74.4590
2023-05-19T04:20:36.455Z,74.3849
2023-05-19T04:21:37.820Z,74.1811
2023-05-19T04:22:39.270Z,74.4634
2023-05-19T04:23:40.777Z,74.0275
2023-05-19T04:24:42.166Z,74.1697
2023-05-19T04:25:43.534Z,74.6322
2023-05-19T04:26:45.014Z,74.4061
2023-05-19T04:27:46.453Z,74.1302
2023-05-19T04:28:47.860Z,74.0281
2023-05-19T04:29:49.208Z,73.8929
2023-05-19T04:30:50.742Z,74.0279
2023-05-19T04:31:52.062Z,74.2371
2023-05-19T04:32:53.572Z,73.8943
2023-05-19T04:33:55.010Z,74.3008
2023-05-19T04:34:56.365Z,74.0110
2023-05-19T04:35:57.836Z,73.9560
2023-05-19T04:36:59.284Z,74.0576
2023-05-19T04:38:00.577Z,74.2363
2023-05-19T04:39:02.115Z,74.2460
2023-05-19T04:40:03.568Z,73.8650
2023-05-19T04:41:04.990Z,74.0296
2023-05-19T04:42:06.299Z,74.2364
2023-05-19T04:43:07.887Z,74.1691
2023-05-19T04:44:09.337Z,73.4413
2023-05-19T04:45:10.516Z,73.7438
2023-05-19T04:46:13.414Z,73.8039
2023-05-19T04:47:13.593Z,73.8675
2023-05-19T04:48:14.984Z,73.9050
2023-05-19T04:49:16.293Z,73.9778
2023-05-19T04:50:17.750Z,73.9275
2023-05-19T04:51:19.177Z,73.7869
2023-05-19T04:52:20.624Z,74.1339
2023-05-19T04:53:22.018Z,74.1340
2023-05-19T04:54:23.348Z,73.9568
2023-05-19T04:55:24.800Z,73.8101
2023-05-19T04:56:26.331Z,73.6293
2023-05-19T04:57:27.708Z,74.1653
2023-05-19T04:58:29.118Z,73.9004
2023-05-19T04:59:30.558Z,73.7529
2023-05-19T05:00:32.111Z,73.6193
2023-05-19T05:01:33.362Z,73.6850
2023-05-19T05:02:34.930Z,73.5973
2023-05-19T05:03:36.211Z,73.5389
2023-05-19T05:04:37.717Z,73.4187
2023-05-19T05:05:39.025Z,73.1465
2023-05-19T05:06:40.546Z,73.1765
2023-05-19T05:07:41.937Z,73.5234
2023-05-19T05:08:43.313Z,73.0952
2023-05-19T05:09:44.796Z,73.1906
2023-05-19T05:10:46.175Z,73.2090
2023-05-19T05:11:47.590Z,73.4357
2023-05-19T05:12:49.005Z,73.3419
2023-05-19T05:13:50.404Z,73.3088
2023-05-19T05:14:51.796Z,73.4262
2023-05-19T05:15:53.166Z,73.1129
2023-05-19T05:16:54.761Z,73.3038
2023-05-19T05:17:56.207Z,73.5425
2023-05-19T05:18:57.640Z,73.4366
2023-05-19T05:19:59.016Z,73.4815
2023-05-19T05:21:00.347Z,73.2558
2023-05-19T05:22:01.812Z,73.6170
2023-05-19T05:23:03.225Z,73.3120
2023-05-19T05:24:04.657Z,73.0956
2023-05-19T05:25:06.010Z,72.9060
2023-05-19T05:26:07.537Z,72.7904
2023-05-19T05:27:08.898Z,73.0089
2023-05-19T05:28:10.380Z,73.2498
2023-05-19T05:29:11.747Z,72.8236
2023-05-19T05:30:13.242Z,72.6792
2023-05-19T05:31:14.565Z,72.7638
2023-05-19T05:32:16.104Z,73.1696
2023-05-19T05:33:17.626Z,73.3055
2023-05-19T05:34:18.895Z,73.4680
2023-05-19T05:35:20.397Z,73.3144
2023-05-19T05:36:21.740Z,73.2813
2023-05-19T05:37:23.174Z,72.9044
2023-05-19T05:38:24.615Z,72.6841
2023-05-19T05:39:25.995Z,72.9779
2023-05-19T05:40:27.428Z,72.7198
2023-05-19T05:41:28.801Z,72.8734
2023-05-19T05:42:30.388Z,73.0946
2023-05-19T05:43:31.737Z,73.1910
2023-05-19T05:44:33.128Z,72.7866
2023-05-19T05:45:34.711Z,72.6964
2023-05-19T05:46:35.865Z,72.6197
2023-05-19T05:47:37.389Z,72.6441
2023-05-19T05:48:38.890Z,72.5858
2023-05-19T05:49:40.154Z,72.6090
2023-05-19T05:50:41.613Z,72.4601
2023-05-19T05:51:48.456Z,72.8031
2023-05-19T05:52:44.530Z,72.7356
2023-05-19T05:53:45.919Z,72.5032
2023-05-19T05:54:47.395Z,72.2797
2023-05-19T05:55:48.771Z,72.2858
2023-05-19T05:56:50.226Z,72.2320
2023-05-19T05:57:51.593Z,72.0463
2023-05-19T05:58:53.036Z,72.0150
2023-05-19T05:59:54.445Z,72.2912
2023-05-19T06:00:55.832Z,72.1630
2023-05-19T06:01:57.248Z,71.9320
2023-05-19T06:02:58.882Z,71.7085
2023-05-19T06:04:00.141Z,72.0893
2023-05-19T06:05:01.613Z,71.8838
2023-05-19T06:06:03.010Z,71.5903
2023-05-19T06:07:04.337Z,71.4751
2023-05-19T06:08:05.874Z,70.2763
2023-05-19T06:09:07.256Z,68.8740
2023-05-19T06:10:08.581Z,66.6807
2023-05-19T06:11:10.058Z,65.2769
2023-05-19T06:12:11.470Z,60.7687
2023-05-19T06:13:13.019Z,59.8627
2023-05-19T06:14:14.335Z,59.6216
2023-05-19T06:15:15.776Z,59.7520
2023-05-19T06:16:17.208Z,59.2634
2023-05-19T06:17:18.602Z,59.1314
2023-05-19T06:18:20.054Z,59.2630
2023-05-19T06:19:21.460Z,59.4849
2023-05-19T06:20:22.887Z,59.4007
2023-05-19T06:21:24.248Z,58.5395
2023-05-19T06:22:25.709Z,58.2283
2023-05-19T06:23:27.168Z,57.3471
2023-05-19T06:24:28.635Z,57.4894
2023-05-19T06:25:29.968Z,57.1400
2023-05-19T06:26:31.283Z,58.4117
2023-05-19T06:27:34.644Z,57.5237
2023-05-19T06:28:34.245Z,58.1863
2023-05-19T06:29:35.793Z,58.4321
2023-05-19T06:30:37.160Z,58.1512
2023-05-19T06:31:38.488Z,57.4677
2023-05-19T06:32:40.044Z,57.2230
2023-05-19T06:33:41.521Z,57.3417
2023-05-19T06:34:42.943Z,55.2683
2023-05-19T06:35:44.261Z,53.5631
2023-05-19T06:36:45.767Z,56.1196
2023-05-19T06:37:47.118Z,59.2230
2023-05-19T06:38:49.398Z,58.6593
2023-05-19T06:39:49.968Z,58.9073
2023-05-19T06:40:51.409Z,57.5712
2023-05-19T06:41:52.786Z,54.0817
2023-05-19T06:42:54.115Z,55.7689
2023-05-19T06:43:55.682Z,57.9777
2023-05-19T06:44:57.097Z,59.7807
2023-05-19T06:45:58.355Z,60.2968
2023-05-19T06:46:59.892Z,59.1898
2023-05-19T06:48:01.349Z,58.6903
2023-05-19T06:49:02.756Z,54.5044
2023-05-19T06:50:04.185Z,55.6930
2023-05-19T06:51:05.834Z,58.1158
2023-05-19T06:52:06.974Z,58.7058
2023-05-19T06:53:08.419Z,58.1953
2023-05-19T06:54:09.880Z,59.7094
2023-05-19T06:55:11.906Z,60.4395
2023-05-19T06:56:12.758Z,55.5477
2023-05-19T06:57:14.105Z,57.5989
2023-05-19T06:58:15.529Z,59.7533
2023-05-19T06:59:17.044Z,60.1834
2023-05-19T07:00:19.954Z,59.6380
2023-05-19T07:01:19.793Z,60.7782
2023-05-19T07:02:21.184Z,60.8218
2023-05-19T07:03:22.805Z,55.7801
2023-05-19T07:04:24.088Z,57.7226
2023-05-19T07:05:26.449Z,60.2713
2023-05-19T07:06:26.865Z,61.2074
2023-05-19T07:07:28.240Z,61.5147
2023-05-19T07:08:29.764Z,61.9974
2023-05-19T07:09:31.227Z,58.0312
2023-05-19T07:10:32.824Z,55.7096
2023-05-19T07:11:33.973Z,59.6583
2023-05-19T07:12:35.394Z,61.5386
2023-05-19T07:13:36.868Z,61.3948
2023-05-19T07:14:38.318Z,61.6764
2023-05-19T07:15:39.782Z,59.9417
2023-05-19T07:16:41.128Z,56.0978
2023-05-19T07:17:42.570Z,59.2661
2023-05-19T07:18:44.044Z,62.1605
2023-05-19T07:19:45.381Z,62.1826
2023-05-19T07:20:46.884Z,61.9208
2023-05-19T07:21:48.258Z,61.2167
2023-05-19T07:22:49.615Z,57.3787
2023-05-19T07:23:51.076Z,60.0849
2023-05-19T07:24:52.555Z,62.6471
2023-05-19T07:25:54.415Z,63.1571
2023-05-19T07:26:55.382Z,61.9222
2023-05-19T07:27:56.777Z,60.9793
2023-05-19T07:28:58.230Z,57.8889
2023-05-19T07:29:59.617Z,59.9231
2023-05-19T07:31:01.187Z,63.1364
2023-05-19T07:32:02.567Z,64.0208
2023-05-19T07:33:03.919Z,63.2794
2023-05-19T07:34:05.330Z,62.4072
2023-05-19T07:35:06.688Z,59.2266
2023-05-19T07:36:08.210Z,59.3636
2023-05-19T07:37:09.512Z,62.6423
2023-05-19T07:38:11.091Z,66.9459
2023-05-19T07:39:12.433Z,64.8814
2023-05-19T07:40:13.865Z,64.1526
2023-05-19T07:41:15.333Z,59.1418
2023-05-19T07:42:16.642Z,60.2127
2023-05-19T07:43:17.987Z,64.3427
2023-05-19T07:44:19.538Z,66.1228
2023-05-19T07:45:21.008Z,66.1736
2023-05-19T07:46:22.550Z,65.2444
